createdAt,value
2022-11-18T00:00:16.550Z,2.70
2022-11-18T00:02:46.114Z,2.60
2022-11-18T00:05:15.282Z,3.03
2022-11-18T00:07:43.570Z,2.80
2022-11-18T00:10:11.922Z,2.80
2022-11-18T00:12:57.722Z,2.85
2022-11-18T00:15:31.467Z,3.08
2022-11-18T00:18:01.400Z,3.50
2022-11-18T00:20:29.531Z,3.30
2022-11-18T00:22:58.212Z,3.25
2022-11-18T00:25:27.080Z,3.45
2022-11-18T00:27:55.893Z,3.42
2022-11-18T00:30:24.991Z,3.50
2022-11-18T00:32:53.361Z,4.30
2022-11-18T00:35:23.422Z,4.18
2022-11-18T00:37:51.894Z,4.15
2022-11-18T00:40:20.417Z,4.15
2022-11-18T00:42:56.381Z,3.85
2022-11-18T00:45:25.244Z,3.60
2022-11-18T00:47:53.851Z,3.75
2022-11-18T00:50:23.670Z,4.32
2022-11-18T00:52:52.584Z,4.03
2022-11-18T00:55:21.134Z,4.00
2022-11-18T00:57:49.796Z,4.25
2022-11-18T01:00:18.992Z,5.22
2022-11-18T01:02:47.698Z,4.60
2022-11-18T01:05:16.331Z,4.40
2022-11-18T01:07:47.327Z,4.50
2022-11-18T01:10:15.884Z,4.38
2022-11-18T01:13:01.533Z,4.53
2022-11-18T01:15:30.480Z,4.07
2022-11-18T01:17:59.231Z,4.55
2022-11-18T01:20:28.101Z,3.50
2022-11-18T01:22:57.970Z,4.50
2022-11-18T01:25:26.527Z,4.70
2022-11-18T01:27:55.201Z,4.35
2022-11-18T01:30:27.423Z,4.03
2022-11-18T01:32:55.886Z,4.05
2022-11-18T01:35:24.992Z,4.60
2022-11-18T01:37:53.482Z,4.68
2022-11-18T01:40:23.439Z,4.10
2022-11-18T01:42:52.140Z,4.50
2022-11-18T01:45:31.052Z,3.85
2022-11-18T01:48:05.135Z,4.38
2022-11-18T01:50:36.848Z,3.92
2022-11-18T01:53:10.678Z,4.10
2022-11-18T01:55:45.973Z,4.22
2022-11-18T01:58:21.762Z,4.10
2022-11-18T02:00:51.708Z,4.03
2022-11-18T02:03:26.533Z,4.07
2022-11-18T02:05:56.648Z,4.15
2022-11-18T02:08:25.460Z,4.60
2022-11-18T02:10:55.366Z,4.38
2022-11-18T02:13:24.718Z,4.15
2022-11-18T02:16:01.838Z,4.38
2022-11-18T02:18:37.791Z,4.25
2022-11-18T02:21:21.056Z,4.40
2022-11-18T02:24:17.951Z,3.90
2022-11-18T02:27:28.735Z,4.03
2022-11-18T02:30:03.248Z,4.07
2022-11-18T02:32:34.910Z,4.00
2022-11-18T02:35:10.797Z,3.88
2022-11-18T02:37:46.962Z,3.75
2022-11-18T02:40:21.001Z,3.72
2022-11-18T02:42:55.409Z,3.67
2022-11-18T02:45:27.537Z,4.10
2022-11-18T02:47:57.747Z,3.55
2022-11-18T02:50:28.009Z,3.70
2022-11-18T02:52:59.535Z,3.53
2022-11-18T02:55:32.149Z,3.33
2022-11-18T02:58:03.060Z,3.38
2022-11-18T03:00:33.857Z,3.17
2022-11-18T03:03:22.237Z,3.60
2022-11-18T03:06:03.422Z,3.70
2022-11-18T03:08:38.049Z,4.60
2022-11-18T03:11:15.475Z,4.05
2022-11-18T03:13:56.332Z,4.50
2022-11-18T03:16:30.875Z,4.28
2022-11-18T03:19:06.707Z,4.22
2022-11-18T03:21:40.013Z,4.10
2022-11-18T03:24:14.742Z,4.55
2022-11-18T03:26:49.345Z,3.97
2022-11-18T03:29:24.919Z,5.05
2022-11-18T03:31:58.167Z,4.90
2022-11-18T03:34:31.284Z,5.70
2022-11-18T03:37:07.598Z,5.97
2022-11-18T03:39:41.741Z,5.95
2022-11-18T03:42:15.569Z,6.05
2022-11-18T03:44:52.493Z,6.43
2022-11-18T03:47:28.519Z,6.00
2022-11-18T03:50:01.559Z,5.97
2022-11-18T03:52:34.415Z,5.47
2022-11-18T03:55:10.121Z,5.72
2022-11-18T03:57:47.660Z,5.88
2022-11-18T04:00:20.354Z,6.60
2022-11-18T04:02:53.182Z,6.32
2022-11-18T04:05:22.017Z,6.60
2022-11-18T04:07:57.544Z,6.70
2022-11-18T04:10:31.461Z,7.47
2022-11-18T04:13:06.635Z,6.60
2022-11-18T04:15:38.684Z,6.78
2022-11-18T04:18:08.804Z,7.45
2022-11-18T04:20:38.102Z,7.00
2022-11-18T04:23:08.364Z,6.43
2022-11-18T04:25:36.835Z,7.30
2022-11-18T04:28:06.433Z,6.20
2022-11-18T04:30:35.416Z,6.85
2022-11-18T04:33:03.933Z,6.50
2022-11-18T04:35:33.669Z,6.45
2022-11-18T04:38:04.741Z,6.53
2022-11-18T04:40:33.673Z,6.80
2022-11-18T04:43:02.007Z,7.05
2022-11-18T04:45:30.232Z,6.97
2022-11-18T04:48:03.302Z,7.47
2022-11-18T04:50:33.763Z,6.85
2022-11-18T04:53:02.254Z,7.68
2022-11-18T04:55:30.625Z,7.25
2022-11-18T04:57:58.900Z,6.72
2022-11-18T05:00:27.326Z,7.35
2022-11-18T05:02:55.607Z,7.40
2022-11-18T05:05:24.004Z,8.68
2022-11-18T05:07:54.221Z,8.82
2022-11-18T05:10:23.452Z,7.95
2022-11-18T05:12:52.313Z,9.02
2022-11-18T05:15:23.827Z,9.95
2022-11-18T05:17:52.309Z,9.73
2022-11-18T05:20:20.803Z,10.57
2022-11-18T05:22:49.780Z,10.55
2022-11-18T05:25:20.165Z,10.27
2022-11-18T05:27:48.659Z,11.05
2022-11-18T05:30:17.241Z,10.48
2022-11-18T05:32:45.599Z,10.82
2022-11-18T05:35:14.458Z,10.90
2022-11-18T05:37:42.851Z,12.10
2022-11-18T05:40:12.268Z,11.35
2022-11-18T05:43:02.579Z,10.55
2022-11-18T05:45:30.948Z,10.90
2022-11-18T05:48:04.148Z,10.60
2022-11-18T05:50:33.442Z,11.38
2022-11-18T05:53:02.105Z,11.10
2022-11-18T05:55:36.033Z,11.15
2022-11-18T05:58:05.654Z,10.85
2022-11-18T06:00:34.363Z,11.73
2022-11-18T06:03:03.756Z,11.57
2022-11-18T06:05:32.005Z,12.25
2022-11-18T06:08:01.590Z,12.30
2022-11-18T06:10:34.395Z,11.98
2022-11-18T06:13:07.814Z,11.48
2022-11-18T06:15:39.972Z,12.32
2022-11-18T06:18:11.243Z,12.43
2022-11-18T06:20:41.258Z,11.85
2022-11-18T06:23:09.790Z,11.15
2022-11-18T06:25:40.457Z,11.60
2022-11-18T06:28:12.751Z,12.35
2022-11-18T06:30:40.997Z,11.52
2022-11-18T06:33:09.442Z,11.98
2022-11-18T06:35:37.845Z,11.85
2022-11-18T06:38:06.110Z,13.15
2022-11-18T06:40:35.531Z,12.70
2022-11-18T06:43:24.905Z,13.00
2022-11-18T06:46:16.450Z,13.57
2022-11-18T06:48:44.803Z,12.60
2022-11-18T06:51:13.219Z,12.55
2022-11-18T06:53:41.715Z,11.40
2022-11-18T06:56:12.245Z,10.52
2022-11-18T06:58:40.551Z,10.18
2022-11-18T07:01:14.758Z,9.38
2022-11-18T07:03:46.546Z,9.07
2022-11-18T07:06:16.971Z,8.35
2022-11-18T07:08:45.749Z,7.43
2022-11-18T07:11:16.051Z,7.10
2022-11-18T07:13:45.266Z,5.53
2022-11-18T07:16:16.545Z,4.50
2022-11-18T07:18:46.152Z,4.50
2022-11-18T07:21:16.698Z,4.38
2022-11-18T07:23:45.875Z,3.75
2022-11-18T07:26:15.108Z,3.40
2022-11-18T07:28:43.860Z,3.53
2022-11-18T07:31:15.433Z,3.88
2022-11-18T07:33:44.859Z,4.00
2022-11-18T07:36:15.267Z,4.20
2022-11-18T07:38:44.559Z,3.88
2022-11-18T07:41:14.690Z,4.18
2022-11-18T07:43:43.902Z,4.03
2022-11-18T07:46:16.119Z,4.57
2022-11-18T07:48:45.925Z,4.20
2022-11-18T07:51:15.794Z,4.25
2022-11-18T07:53:44.353Z,3.92
2022-11-18T07:56:13.121Z,3.92
2022-11-18T07:58:42.022Z,3.85
2022-11-18T08:01:11.990Z,3.88
2022-11-18T08:03:41.984Z,4.05
2022-11-18T08:06:11.972Z,3.38
2022-11-18T08:08:40.983Z,4.22
2022-11-18T08:11:11.292Z,3.30
2022-11-18T08:13:39.812Z,3.08
2022-11-18T08:16:14.732Z,2.60
2022-11-18T08:18:45.130Z,2.60
2022-11-18T08:21:14.431Z,2.50
2022-11-18T08:23:42.964Z,2.65
2022-11-18T08:26:14.288Z,2.30
2022-11-18T08:28:43.410Z,1.92
2022-11-18T08:31:17.432Z,1.80
2022-11-18T08:33:47.713Z,1.88
2022-11-18T08:36:17.961Z,1.50
2022-11-18T08:38:46.436Z,1.83
2022-11-18T08:41:16.321Z,1.92
2022-11-18T08:43:44.608Z,2.40
2022-11-18T08:46:13.013Z,2.80
2022-11-18T08:48:41.578Z,2.58
2022-11-18T08:51:14.935Z,3.00
2022-11-18T08:53:43.307Z,2.45
2022-11-18T08:56:16.215Z,2.67
2022-11-18T08:58:45.168Z,2.75
2022-11-18T09:01:14.296Z,2.35
2022-11-18T09:03:43.102Z,2.40
2022-11-18T09:06:14.324Z,2.10
2022-11-18T09:08:43.289Z,2.33
2022-11-18T09:11:15.910Z,2.15
2022-11-18T09:16:35.068Z,2.08
2022-11-18T09:19:18.596Z,1.55
2022-11-18T09:21:54.119Z,1.85
2022-11-18T09:24:22.443Z,1.83
2022-11-18T09:26:53.582Z,2.30
2022-11-18T09:29:25.706Z,2.08
2022-11-18T09:31:54.770Z,2.03
2022-11-18T09:34:23.525Z,2.03
2022-11-18T09:36:56.137Z,2.10
2022-11-18T09:39:30.645Z,2.17
2022-11-18T09:42:12.512Z,2.20
2022-11-18T09:44:56.316Z,2.03
2022-11-18T09:47:29.599Z,2.30
2022-11-18T09:50:03.800Z,2.30
2022-11-18T09:52:48.194Z,2.92
2022-11-18T09:55:18.915Z,2.80
2022-11-18T09:57:50.168Z,2.80
2022-11-18T10:00:20.727Z,2.90
2022-11-18T10:02:56.870Z,2.90
2022-11-18T10:05:27.259Z,2.88
2022-11-18T10:08:06.243Z,2.45
2022-11-18T10:10:42.446Z,2.78
2022-11-18T10:13:19.708Z,2.95
2022-11-18T10:16:00.328Z,2.70
2022-11-18T10:21:30.263Z,2.78
2022-11-18T10:24:05.482Z,3.08
2022-11-18T10:26:39.170Z,2.75
2022-11-18T10:29:09.919Z,2.95
2022-11-18T10:31:39.673Z,3.00
2022-11-18T10:34:14.877Z,2.83
2022-11-18T10:36:43.345Z,3.03
2022-11-18T10:39:16.073Z,3.55
2022-11-18T10:41:48.010Z,3.70
2022-11-18T10:44:40.911Z,3.22
2022-11-18T10:47:28.088Z,3.20
2022-11-18T10:49:58.832Z,3.75
2022-11-18T10:52:28.046Z,3.50
2022-11-18T10:55:26.073Z,4.00
2022-11-18T10:58:01.601Z,3.50
2022-11-18T11:00:45.050Z,3.70
2022-11-18T11:03:36.308Z,3.88
2022-11-18T11:06:33.045Z,3.70
2022-11-18T11:09:05.538Z,4.10
2022-11-18T11:11:37.538Z,3.88
2022-11-18T11:14:22.776Z,4.10
2022-11-18T11:16:58.950Z,3.78
2022-11-18T11:19:34.181Z,4.10
2022-11-18T11:22:02.746Z,3.85
2022-11-18T11:24:31.219Z,4.80
2022-11-18T11:30:13.790Z,4.88
2022-11-18T11:33:10.090Z,4.57
2022-11-18T11:35:48.684Z,4.18
2022-11-18T11:38:27.740Z,4.35
2022-11-18T11:41:05.947Z,4.07
2022-11-18T11:43:50.215Z,4.10
2022-11-18T11:46:33.651Z,3.50
2022-11-18T11:49:16.880Z,3.40
2022-11-18T11:51:51.520Z,3.53
2022-11-18T11:54:43.045Z,3.30
2022-11-18T11:57:20.013Z,3.58
2022-11-18T11:59:55.748Z,3.10
2022-11-18T12:02:41.797Z,3.28
2022-11-18T12:05:20.863Z,3.17
2022-11-18T12:07:53.010Z,3.17
2022-11-18T12:10:30.150Z,3.10
2022-11-18T12:13:13.006Z,3.20
2022-11-18T12:15:53.409Z,3.40
2022-11-18T12:18:32.124Z,3.05
2022-11-18T12:21:06.387Z,3.15
2022-11-18T12:23:35.498Z,3.42
2022-11-18T12:26:09.595Z,3.10
2022-11-18T12:28:45.049Z,3.05
2022-11-18T12:31:37.297Z,3.10
2022-11-18T12:34:19.580Z,3.03
2022-11-18T12:36:48.619Z,2.97
2022-11-18T12:39:49.476Z,3.40
2022-11-18T12:42:58.588Z,3.20
2022-11-18T12:45:52.055Z,3.53
2022-11-18T12:48:37.337Z,3.40
2022-11-18T12:51:43.517Z,3.85
2022-11-18T12:54:34.599Z,3.65
2022-11-18T12:57:05.510Z,3.30
2022-11-18T12:59:36.401Z,3.90
2022-11-18T13:02:15.517Z,3.22
2022-11-18T13:04:49.653Z,3.90
2022-11-18T13:07:46.806Z,4.45
2022-11-18T13:10:24.294Z,4.22
2022-11-18T13:12:53.979Z,3.97
2022-11-18T13:15:40.028Z,3.92
2022-11-18T13:18:14.996Z,3.50
2022-11-18T13:20:54.938Z,3.35
2022-11-18T13:23:46.151Z,3.45
2022-11-18T13:26:20.002Z,3.58
2022-11-18T13:29:04.108Z,3.70
2022-11-18T13:31:40.177Z,3.05
2022-11-18T13:34:17.976Z,2.75
2022-11-18T13:36:50.135Z,2.70
2022-11-18T13:39:23.352Z,3.28
2022-11-18T13:42:03.859Z,3.05
2022-11-18T13:44:34.892Z,3.47
2022-11-18T13:47:09.467Z,2.90
2022-11-18T13:49:50.730Z,3.40
2022-11-18T13:52:28.822Z,3.00
2022-11-18T13:55:00.274Z,2.80
2022-11-18T13:57:30.242Z,2.47
2022-11-18T14:00:20.863Z,2.55
2022-11-18T14:02:56.858Z,2.50
2022-11-18T14:05:26.069Z,2.63
2022-11-18T14:08:06.621Z,2.40
2022-11-18T14:10:42.031Z,2.33
2022-11-18T14:13:22.139Z,1.95
2022-11-18T14:15:50.786Z,1.88
2022-11-18T14:18:25.148Z,1.58
2022-11-18T14:20:55.354Z,1.50
2022-11-18T14:23:29.529Z,0.90
2022-11-18T14:25:59.965Z,1.10
2022-11-18T14:28:30.211Z,0.95
2022-11-18T14:31:05.004Z,0.77
2022-11-18T14:33:35.632Z,1.00
2022-11-18T14:36:10.594Z,0.73
2022-11-18T14:41:50.739Z,1.00
2022-11-18T14:44:21.399Z,0.98
2022-11-18T14:46:53.484Z,1.65
2022-11-18T14:49:24.431Z,1.23
2022-11-18T14:51:54.227Z,0.98
2022-11-18T14:54:27.475Z,0.70
2022-11-18T14:56:58.378Z,1.00
2022-11-18T14:59:27.240Z,1.08
2022-11-18T15:01:56.975Z,0.90
2022-11-18T15:04:26.145Z,1.10
2022-11-18T15:06:56.557Z,1.20
2022-11-18T15:09:26.761Z,1.15
2022-11-18T15:11:55.204Z,1.05
2022-11-18T15:14:23.575Z,1.20
2022-11-18T15:16:52.105Z,1.30
2022-11-18T15:19:24.635Z,1.52
2022-11-18T15:21:53.161Z,1.35
2022-11-18T15:24:21.932Z,1.65
2022-11-18T15:26:55.583Z,2.65
2022-11-18T15:29:25.277Z,2.35
2022-11-18T15:31:54.372Z,2.00
2022-11-18T15:34:23.239Z,2.00
2022-11-18T15:36:52.613Z,1.70
2022-11-18T15:39:21.535Z,1.50
2022-11-18T15:42:57.706Z,1.50
2022-11-18T15:46:26.567Z,1.40
2022-11-18T15:53:34.920Z,1.63
2022-11-18T15:56:23.949Z,2.33
2022-11-18T15:59:05.143Z,5.65
2022-11-18T16:01:43.345Z,4.03
2022-11-18T16:04:17.435Z,3.45
2022-11-18T16:06:48.402Z,2.95
2022-11-18T16:09:18.236Z,2.10
2022-11-18T16:12:04.373Z,2.75
2022-11-18T16:14:37.225Z,2.40
2022-11-18T16:17:05.818Z,2.35
2022-11-18T16:19:34.302Z,2.45
2022-11-18T16:22:02.993Z,2.00
2022-11-18T16:24:31.735Z,2.22
2022-11-18T16:27:00.097Z,2.20
2022-11-18T16:29:28.818Z,1.80
2022-11-18T16:31:59.081Z,2.58
2022-11-18T16:34:29.295Z,3.30
2022-11-18T16:36:59.980Z,2.72
2022-11-18T16:39:57.836Z,3.33
2022-11-18T16:42:39.676Z,3.20
2022-11-18T16:45:11.573Z,3.67
2022-11-18T16:47:41.626Z,3.40
2022-11-18T16:50:10.994Z,3.15
2022-11-18T16:52:39.646Z,3.13
2022-11-18T16:55:09.009Z,3.15
2022-11-18T16:57:37.355Z,3.13
2022-11-18T17:00:06.730Z,2.90
2022-11-18T17:02:35.466Z,3.30
2022-11-18T17:05:05.429Z,2.92
2022-11-18T17:07:38.368Z,2.40
2022-11-18T17:10:19.583Z,2.25
2022-11-18T17:12:48.532Z,2.55
2022-11-18T17:15:19.477Z,2.38
2022-11-18T17:17:47.685Z,2.40
2022-11-18T17:20:17.991Z,2.55
2022-11-18T17:22:49.226Z,3.10
2022-11-18T17:25:17.596Z,2.72
2022-11-18T17:27:45.924Z,4.18
2022-11-18T17:30:21.139Z,4.30
2022-11-18T17:32:50.912Z,4.32
2022-11-18T17:35:20.740Z,4.20
2022-11-18T17:37:49.980Z,3.42
2022-11-18T17:40:18.689Z,3.72
2022-11-18T17:42:47.332Z,3.78
2022-11-18T17:45:15.863Z,3.63
2022-11-18T17:47:44.301Z,3.63
2022-11-18T17:50:12.500Z,3.35
2022-11-18T17:52:42.061Z,3.22
2022-11-18T17:55:11.041Z,4.75
2022-11-18T17:57:39.267Z,3.20
2022-11-18T18:00:16.192Z,3.42
2022-11-18T18:02:47.197Z,3.38
2022-11-18T18:05:16.203Z,3.30
2022-11-18T18:07:48.309Z,4.18
2022-11-18T18:10:19.076Z,3.83
2022-11-18T18:13:04.892Z,4.57
2022-11-18T18:15:33.405Z,3.60
2022-11-18T18:18:01.868Z,4.03
2022-11-18T18:20:30.135Z,3.83
2022-11-18T18:22:59.680Z,3.00
2022-11-18T18:25:27.914Z,3.20
2022-11-18T18:27:56.163Z,4.13
2022-11-18T18:30:24.391Z,3.72
2022-11-18T18:32:52.895Z,3.15
2022-11-18T18:35:21.088Z,2.70
2022-11-18T18:37:49.407Z,3.08
2022-11-18T18:40:19.218Z,3.40
2022-11-18T18:42:47.400Z,3.25
2022-11-18T18:45:32.996Z,3.10
2022-11-18T18:48:03.856Z,3.40
2022-11-18T18:50:33.481Z,3.08
2022-11-18T18:53:01.732Z,2.65
2022-11-18T18:55:31.308Z,2.72
2022-11-18T18:57:59.691Z,2.67
2022-11-18T19:00:27.906Z,3.08
2022-11-18T19:02:56.253Z,2.80
2022-11-18T19:05:45.849Z,2.60
2022-11-18T19:08:13.059Z,2.65
2022-11-18T19:10:42.943Z,2.70
2022-11-18T19:13:10.482Z,3.10
2022-11-18T19:15:49.988Z,2.70
2022-11-18T19:18:29.742Z,2.63
2022-11-18T19:20:58.096Z,3.05
2022-11-18T19:23:27.100Z,2.65
2022-11-18T19:26:03.790Z,2.67
2022-11-18T19:28:32.241Z,2.58
2022-11-18T19:31:03.437Z,2.38
2022-11-18T19:33:32.477Z,2.83
2022-11-18T19:36:04.035Z,3.17
2022-11-18T19:38:34.886Z,3.20
2022-11-18T19:41:06.156Z,3.00
2022-11-18T19:43:35.463Z,3.13
2022-11-18T19:46:04.941Z,3.20
2022-11-18T19:48:33.874Z,2.95
2022-11-18T19:51:08.087Z,3.13
2022-11-18T19:53:38.978Z,2.97
2022-11-18T19:56:10.706Z,3.20
2022-11-18T19:58:40.980Z,2.85
2022-11-18T20:01:11.522Z,3.08
2022-11-18T20:03:40.067Z,3.38
2022-11-18T20:06:09.568Z,3.35
2022-11-18T20:08:46.227Z,3.42
2022-11-18T20:11:17.552Z,3.60
2022-11-18T20:13:47.033Z,3.40
2022-11-18T20:16:18.696Z,3.53
2022-11-18T20:18:48.886Z,2.92
2022-11-18T20:21:20.017Z,2.90
2022-11-18T20:23:49.525Z,2.97
2022-11-18T20:26:23.416Z,3.25
2022-11-18T20:28:57.189Z,3.30
2022-11-18T20:31:27.422Z,3.30
2022-11-18T20:33:56.946Z,3.00
2022-11-18T20:36:27.230Z,3.00
2022-11-18T20:38:58.260Z,3.40
2022-11-18T20:41:30.332Z,3.30
2022-11-18T20:43:59.066Z,3.35
2022-11-18T20:46:28.060Z,3.50
2022-11-18T20:48:57.016Z,3.60
2022-11-18T20:51:27.563Z,3.20
2022-11-18T20:53:58.783Z,3.35
2022-11-18T20:56:29.008Z,3.33
2022-11-18T20:58:58.316Z,3.17
2022-11-18T21:01:28.824Z,3.10
2022-11-18T21:03:59.144Z,3.05
2022-11-18T21:06:29.528Z,3.00
2022-11-18T21:08:59.333Z,3.40
2022-11-18T21:11:29.557Z,3.47
2022-11-18T21:14:23.304Z,3.40
2022-11-18T21:16:53.181Z,3.40
2022-11-18T21:19:21.602Z,3.83
2022-11-18T21:21:51.753Z,3.72
2022-11-18T21:24:21.845Z,3.70
2022-11-18T21:26:54.681Z,3.28
2022-11-18T21:29:23.916Z,3.22
2022-11-18T21:31:52.495Z,2.90
2022-11-18T21:34:20.796Z,3.80
2022-11-18T21:36:54.290Z,4.20
2022-11-18T21:39:24.516Z,3.92
2022-11-18T21:41:56.541Z,4.43
2022-11-18T21:44:25.951Z,4.97
2022-11-18T21:46:54.233Z,4.28
2022-11-18T21:49:22.893Z,4.47
2022-11-18T21:51:51.287Z,4.30
2022-11-18T21:54:19.750Z,4.57
2022-11-18T21:56:48.083Z,5.32
2022-11-18T21:59:18.064Z,4.50
2022-11-18T22:01:46.848Z,4.03
2022-11-18T22:04:35.087Z,4.15
2022-11-18T22:07:03.742Z,3.20
2022-11-18T22:09:36.404Z,3.30
2022-11-18T22:12:07.841Z,3.38
2022-11-18T22:14:37.707Z,3.25
2022-11-18T22:17:06.416Z,3.08
2022-11-18T22:19:34.518Z,2.80
2022-11-18T22:22:02.982Z,3.08
2022-11-18T22:24:31.076Z,3.30
2022-11-18T22:26:59.614Z,3.80
2022-11-18T22:29:27.891Z,3.88
2022-11-18T22:31:57.373Z,3.83
2022-11-18T22:34:25.718Z,4.10
2022-11-18T22:36:53.869Z,3.40
2022-11-18T22:39:22.388Z,3.83
2022-11-18T22:42:08.564Z,4.60
2022-11-18T22:44:36.772Z,3.53
2022-11-18T22:47:06.369Z,3.95
2022-11-18T22:49:34.619Z,4.00
2022-11-18T22:52:02.759Z,4.38
2022-11-18T22:54:38.968Z,4.07
2022-11-18T22:57:08.885Z,4.40
2022-11-18T22:59:37.188Z,4.75
2022-11-18T23:02:07.132Z,6.05
2022-11-18T23:04:36.398Z,4.95
2022-11-18T23:07:04.859Z,4.63
2022-11-18T23:09:33.129Z,4.50
2022-11-18T23:12:18.711Z,4.40
2022-11-18T23:14:46.905Z,4.85
2022-11-18T23:17:16.419Z,5.03
2022-11-18T23:19:47.797Z,4.75
2022-11-18T23:22:15.952Z,5.07
2022-11-18T23:24:44.075Z,5.10
2022-11-18T23:27:12.298Z,4.88
2022-11-18T23:29:40.732Z,4.10
2022-11-18T23:32:08.854Z,4.45
2022-11-18T23:34:38.381Z,4.80
2022-11-18T23:37:06.626Z,5.05
2022-11-18T23:39:34.827Z,4.28
2022-11-18T23:42:03.129Z,5.35
2022-11-18T23:44:46.756Z,4.80
2022-11-18T23:47:15.229Z,4.70
2022-11-18T23:49:44.921Z,4.38
2022-11-18T23:52:14.852Z,5.30
2022-11-18T23:54:42.967Z,4.38
2022-11-18T23:57:11.092Z,4.07
2022-11-18T23:59:39.310Z,4.03
